sensor_id;sensor_type;location;lat;lon;timestamp;temperature;humidity
12815;DHT22;6472;52.328;13.070;2022-09-28T00:01:06;6.50;99.90
12815;DHT22;6472;52.328;13.070;2022-09-28T00:03:34;6.50;99.90
12815;DHT22;6472;52.328;13.070;2022-09-28T00:06:03;6.50;99.90
12815;DHT22;6472;52.328;13.070;2022-09-28T00:08:32;6.40;99.90
12815;DHT22;6472;52.328;13.070;2022-09-28T00:11:01;6.50;99.90
12815;DHT22;6472;52.328;13.070;2022-09-28T00:13:29;6.50;99.90
12815;DHT22;6472;52.328;13.070;2022-09-28T00:16:00;6.40;99.90
12815;DHT22;6472;52.328;13.070;2022-09-28T00:18:29;6.50;99.90
12815;DHT22;6472;52.328;13.070;2022-09-28T00:21:01;6.50;99.90
12815;DHT22;6472;52.328;13.070;2022-09-28T00:23:30;6.50;99.90
12815;DHT22;6472;52.328;13.070;2022-09-28T00:26:02;6.60;99.90
12815;DHT22;6472;52.328;13.070;2022-09-28T00:28:30;6.60;99.90
12815;DHT22;6472;52.328;13.070;2022-09-28T00:30:58;6.60;99.90
12815;DHT22;6472;52.328;13.070;2022-09-28T00:33:26;6.60;99.90
12815;DHT22;6472;52.328;13.070;2022-09-28T00:35:57;6.70;99.90
12815;DHT22;6472;52.328;13.070;2022-09-28T00:38:26;6.70;99.90
12815;DHT22;6472;52.328;13.070;2022-09-28T00:40:55;6.70;99.90
12815;DHT22;6472;52.328;13.070;2022-09-28T00:43:23;6.70;99.90
12815;DHT22;6472;52.328;13.070;2022-09-28T00:45:56;6.70;99.90
12815;DHT22;6472;52.328;13.070;2022-09-28T00:48:28;6.80;99.90
12815;DHT22;6472;52.328;13.070;2022-09-28T00:51:02;6.80;99.90
12815;DHT22;6472;52.328;13.070;2022-09-28T00:53:34;6.80;99.90
12815;DHT22;6472;52.328;13.070;2022-09-28T00:56:06;6.80;99.90
12815;DHT22;6472;52.328;13.070;2022-09-28T00:58:39;6.90;99.90
12815;DHT22;6472;52.328;13.070;2022-09-28T01:01:08;6.90;99.90
12815;DHT22;6472;52.328;13.070;2022-09-28T01:03:38;6.90;99.90
12815;DHT22;6472;52.328;13.070;2022-09-28T01:06:17;6.90;99.90
12815;DHT22;6472;52.328;13.070;2022-09-28T01:08:48;6.90;99.90
12815;DHT22;6472;52.328;13.070;2022-09-28T01:11:17;7.00;99.90
12815;DHT22;6472;52.328;13.070;2022-09-28T01:13:47;7.00;99.90
12815;DHT22;6472;52.328;13.070;2022-09-28T01:16:23;7.00;99.90
12815;DHT22;6472;52.328;13.070;2022-09-28T01:19:00;7.00;99.90
12815;DHT22;6472;52.328;13.070;2022-09-28T01:21:44;7.00;99.90
12815;DHT22;6472;52.328;13.070;2022-09-28T01:24:26;7.00;99.90
12815;DHT22;6472;52.328;13.070;2022-09-28T01:27:10;7.00;99.90
12815;DHT22;6472;52.328;13.070;2022-09-28T01:29:45;7.10;99.90
12815;DHT22;6472;52.328;13.070;2022-09-28T01:32:22;7.00;99.90
12815;DHT22;6472;52.328;13.070;2022-09-28T01:34:56;7.10;99.90
12815;DHT22;6472;52.328;13.070;2022-09-28T01:37:30;7.10;99.90
12815;DHT22;6472;52.328;13.070;2022-09-28T01:40:04;7.10;99.90
12815;DHT22;6472;52.328;13.070;2022-09-28T01:42:37;7.10;99.90
12815;DHT22;6472;52.328;13.070;2022-09-28T01:45:11;7.10;99.90
12815;DHT22;6472;52.328;13.070;2022-09-28T01:47:42;7.10;99.90
12815;DHT22;6472;52.328;13.070;2022-09-28T01:50:16;7.10;99.90
12815;DHT22;6472;52.328;13.070;2022-09-28T01:52:48;7.10;99.90
12815;DHT22;6472;52.328;13.070;2022-09-28T01:55:24;7.10;99.90
12815;DHT22;6472;52.328;13.070;2022-09-28T01:58:00;7.10;99.90
12815;DHT22;6472;52.328;13.070;2022-09-28T02:00:30;7.10;99.90
12815;DHT22;6472;52.328;13.070;2022-09-28T02:05:32;7.10;99.90
12815;DHT22;6472;52.328;13.070;2022-09-28T02:08:04;7.20;99.90
12815;DHT22;6472;52.328;13.070;2022-09-28T02:10:38;7.20;99.90
12815;DHT22;6472;52.328;13.070;2022-09-28T02:13:12;7.20;99.90
12815;DHT22;6472;52.328;13.070;2022-09-28T02:15:44;7.20;99.90
12815;DHT22;6472;52.328;13.070;2022-09-28T02:18:15;7.20;99.90
12815;DHT22;6472;52.328;13.070;2022-09-28T02:20:48;7.30;99.90
12815;DHT22;6472;52.328;13.070;2022-09-28T02:23:19;7.30;99.90
12815;DHT22;6472;52.328;13.070;2022-09-28T02:25:50;7.30;99.90
12815;DHT22;6472;52.328;13.070;2022-09-28T02:28:21;7.20;99.90
12815;DHT22;6472;52.328;13.070;2022-09-28T02:30:49;7.20;99.90
12815;DHT22;6472;52.328;13.070;2022-09-28T02:33:21;7.20;99.90
12815;DHT22;6472;52.328;13.070;2022-09-28T02:35:50;7.20;99.90
12815;DHT22;6472;52.328;13.070;2022-09-28T02:38:18;7.20;99.90
12815;DHT22;6472;52.328;13.070;2022-09-28T02:41:01;7.20;99.90
12815;DHT22;6472;52.328;13.070;2022-09-28T02:43:39;7.30;99.90
12815;DHT22;6472;52.328;13.070;2022-09-28T02:46:20;7.30;99.90
12815;DHT22;6472;52.328;13.070;2022-09-28T02:48:58;7.30;99.90
12815;DHT22;6472;52.328;13.070;2022-09-28T02:52:04;7.30;99.90
12815;DHT22;6472;52.328;13.070;2022-09-28T02:55:00;7.30;99.90
12815;DHT22;6472;52.328;13.070;2022-09-28T02:57:40;7.30;99.90
12815;DHT22;6472;52.328;13.070;2022-09-28T03:00:16;7.30;99.90
12815;DHT22;6472;52.328;13.070;2022-09-28T03:02:50;7.30;99.90
12815;DHT22;6472;52.328;13.070;2022-09-28T03:05:30;7.30;99.90
12815;DHT22;6472;52.328;13.070;2022-09-28T03:08:02;7.30;99.90
12815;DHT22;6472;52.328;13.070;2022-09-28T03:10:36;7.30;99.90
12815;DHT22;6472;52.328;13.070;2022-09-28T03:13:06;7.40;99.90
12815;DHT22;6472;52.328;13.070;2022-09-28T03:15:36;7.30;99.90
12815;DHT22;6472;52.328;13.070;2022-09-28T03:18:04;7.40;99.90
12815;DHT22;6472;52.328;13.070;2022-09-28T03:20:32;7.40;99.90
12815;DHT22;6472;52.328;13.070;2022-09-28T03:23:01;7.40;99.90
12815;DHT22;6472;52.328;13.070;2022-09-28T03:25:48;7.40;99.90
12815;DHT22;6472;52.328;13.070;2022-09-28T03:28:16;7.40;99.90
12815;DHT22;6472;52.328;13.070;2022-09-28T03:30:46;7.40;99.90
12815;DHT22;6472;52.328;13.070;2022-09-28T03:33:14;7.30;99.90
12815;DHT22;6472;52.328;13.070;2022-09-28T03:35:45;7.30;99.90
12815;DHT22;6472;52.328;13.070;2022-09-28T03:38:13;7.20;99.90
12815;DHT22;6472;52.328;13.070;2022-09-28T03:40:42;7.20;99.90
12815;DHT22;6472;52.328;13.070;2022-09-28T03:43:10;7.10;99.90
12815;DHT22;6472;52.328;13.070;2022-09-28T03:45:38;7.10;99.90
12815;DHT22;6472;52.328;13.070;2022-09-28T03:48:07;7.10;99.90
12815;DHT22;6472;52.328;13.070;2022-09-28T03:50:35;6.90;99.90
12815;DHT22;6472;52.328;13.070;2022-09-28T03:53:03;7.00;99.90
12815;DHT22;6472;52.328;13.070;2022-09-28T03:55:31;7.00;99.90
12815;DHT22;6472;52.328;13.070;2022-09-28T03:57:59;7.10;99.90
12815;DHT22;6472;52.328;13.070;2022-09-28T04:00:27;7.10;99.90
12815;DHT22;6472;52.328;13.070;2022-09-28T04:02:55;7.10;99.90
12815;DHT22;6472;52.328;13.070;2022-09-28T04:05:24;7.10;99.90
12815;DHT22;6472;52.328;13.070;2022-09-28T04:07:53;7.10;99.90
12815;DHT22;6472;52.328;13.070;2022-09-28T04:10:23;7.10;99.90
12815;DHT22;6472;52.328;13.070;2022-09-28T04:12:53;7.10;99.90
12815;DHT22;6472;52.328;13.070;2022-09-28T04:15:21;7.10;99.90
12815;DHT22;6472;52.328;13.070;2022-09-28T04:17:50;7.20;99.90
12815;DHT22;6472;52.328;13.070;2022-09-28T04:20:18;7.30;99.90
12815;DHT22;6472;52.328;13.070;2022-09-28T04:22:47;7.20;99.90
12815;DHT22;6472;52.328;13.070;2022-09-28T04:25:15;7.20;99.90
12815;DHT22;6472;52.328;13.070;2022-09-28T04:27:43;7.20;99.90
12815;DHT22;6472;52.328;13.070;2022-09-28T04:30:28;7.20;99.90
12815;DHT22;6472;52.328;13.070;2022-09-28T04:32:56;7.20;99.90
12815;DHT22;6472;52.328;13.070;2022-09-28T04:35:24;7.30;99.90
12815;DHT22;6472;52.328;13.070;2022-09-28T04:37:53;7.30;99.90
12815;DHT22;6472;52.328;13.070;2022-09-28T04:40:22;7.30;99.90
12815;DHT22;6472;52.328;13.070;2022-09-28T04:42:53;7.30;99.90
12815;DHT22;6472;52.328;13.070;2022-09-28T04:45:22;7.30;99.90
12815;DHT22;6472;52.328;13.070;2022-09-28T04:47:51;7.30;99.90
12815;DHT22;6472;52.328;13.070;2022-09-28T04:50:20;7.30;99.90
12815;DHT22;6472;52.328;13.070;2022-09-28T04:52:48;7.40;99.90
12815;DHT22;6472;52.328;13.070;2022-09-28T04:55:17;7.40;99.90
12815;DHT22;6472;52.328;13.070;2022-09-28T04:57:46;7.40;99.90
12815;DHT22;6472;52.328;13.070;2022-09-28T05:00:14;7.40;99.90
12815;DHT22;6472;52.328;13.070;2022-09-28T05:02:42;7.40;99.90
12815;DHT22;6472;52.328;13.070;2022-09-28T05:05:11;7.50;99.90
12815;DHT22;6472;52.328;13.070;2022-09-28T05:07:39;7.40;99.90
12815;DHT22;6472;52.328;13.070;2022-09-28T05:10:07;7.50;99.90
12815;DHT22;6472;52.328;13.070;2022-09-28T05:12:37;7.40;99.90
12815;DHT22;6472;52.328;13.070;2022-09-28T05:15:05;7.40;99.90
12815;DHT22;6472;52.328;13.070;2022-09-28T05:17:33;7.50;99.90
12815;DHT22;6472;52.328;13.070;2022-09-28T05:20:01;7.50;99.90
12815;DHT22;6472;52.328;13.070;2022-09-28T05:22:29;7.50;99.90
12815;DHT22;6472;52.328;13.070;2022-09-28T05:24:57;7.50;99.90
12815;DHT22;6472;52.328;13.070;2022-09-28T05:27:25;7.50;99.90
12815;DHT22;6472;52.328;13.070;2022-09-28T05:29:55;7.50;99.90
12815;DHT22;6472;52.328;13.070;2022-09-28T05:32:23;7.50;99.90
12815;DHT22;6472;52.328;13.070;2022-09-28T05:34:50;7.50;99.90
12815;DHT22;6472;52.328;13.070;2022-09-28T05:37:18;7.50;99.90
12815;DHT22;6472;52.328;13.070;2022-09-28T05:39:46;7.50;99.90
12815;DHT22;6472;52.328;13.070;2022-09-28T05:42:14;7.50;99.90
12815;DHT22;6472;52.328;13.070;2022-09-28T05:44:42;7.50;99.90
12815;DHT22;6472;52.328;13.070;2022-09-28T05:47:11;7.40;99.90
12815;DHT22;6472;52.328;13.070;2022-09-28T05:49:39;7.40;99.90
12815;DHT22;6472;52.328;13.070;2022-09-28T05:52:08;7.40;99.90
12815;DHT22;6472;52.328;13.070;2022-09-28T05:54:36;7.30;99.90
12815;DHT22;6472;52.328;13.070;2022-09-28T05:57:04;7.20;99.90
12815;DHT22;6472;52.328;13.070;2022-09-28T05:59:32;7.20;99.90
12815;DHT22;6472;52.328;13.070;2022-09-28T06:02:01;7.10;99.90
12815;DHT22;6472;52.328;13.070;2022-09-28T06:04:31;7.10;99.90
12815;DHT22;6472;52.328;13.070;2022-09-28T06:06:59;7.00;99.90
12815;DHT22;6472;52.328;13.070;2022-09-28T06:09:27;7.00;99.90
12815;DHT22;6472;52.328;13.070;2022-09-28T06:11:57;6.90;99.90
12815;DHT22;6472;52.328;13.070;2022-09-28T06:14:25;6.90;99.90
12815;DHT22;6472;52.328;13.070;2022-09-28T06:16:53;6.90;99.90
12815;DHT22;6472;52.328;13.070;2022-09-28T06:19:21;6.90;99.90
12815;DHT22;6472;52.328;13.070;2022-09-28T06:21:51;6.90;99.90
12815;DHT22;6472;52.328;13.070;2022-09-28T06:24:19;7.00;99.90
12815;DHT22;6472;52.328;13.070;2022-09-28T06:26:47;7.00;99.90
12815;DHT22;6472;52.328;13.070;2022-09-28T06:29:15;7.00;99.90
12815;DHT22;6472;52.328;13.070;2022-09-28T06:31:45;7.10;99.90
12815;DHT22;6472;52.328;13.070;2022-09-28T06:34:13;7.20;99.90
12815;DHT22;6472;52.328;13.070;2022-09-28T06:36:42;7.30;99.90
12815;DHT22;6472;52.328;13.070;2022-09-28T06:39:11;7.30;99.90
12815;DHT22;6472;52.328;13.070;2022-09-28T06:41:40;7.40;99.90
12815;DHT22;6472;52.328;13.070;2022-09-28T06:44:08;7.50;99.90
12815;DHT22;6472;52.328;13.070;2022-09-28T06:46:36;7.60;99.90
12815;DHT22;6472;52.328;13.070;2022-09-28T06:49:05;7.60;99.90
12815;DHT22;6472;52.328;13.070;2022-09-28T06:51:34;7.60;99.90
12815;DHT22;6472;52.328;13.070;2022-09-28T06:54:03;7.70;99.90
12815;DHT22;6472;52.328;13.070;2022-09-28T06:56:32;7.80;99.90
12815;DHT22;6472;52.328;13.070;2022-09-28T06:59:00;7.90;99.90
12815;DHT22;6472;52.328;13.070;2022-09-28T07:01:28;8.00;99.90
12815;DHT22;6472;52.328;13.070;2022-09-28T07:03:56;8.10;99.90
12815;DHT22;6472;52.328;13.070;2022-09-28T07:06:24;8.10;99.90
12815;DHT22;6472;52.328;13.070;2022-09-28T07:08:52;8.20;99.90
12815;DHT22;6472;52.328;13.070;2022-09-28T07:11:39;8.20;99.90
12815;DHT22;6472;52.328;13.070;2022-09-28T07:14:07;8.30;99.90
12815;DHT22;6472;52.328;13.070;2022-09-28T07:16:47;8.40;99.90
12815;DHT22;6472;52.328;13.070;2022-09-28T07:19:35;8.40;99.90
12815;DHT22;6472;52.328;13.070;2022-09-28T07:22:03;8.50;99.90
12815;DHT22;6472;52.328;13.070;2022-09-28T07:24:31;8.60;99.90
12815;DHT22;6472;52.328;13.070;2022-09-28T07:27:00;8.60;99.90
12815;DHT22;6472;52.328;13.070;2022-09-28T07:29:30;8.70;99.90
12815;DHT22;6472;52.328;13.070;2022-09-28T07:31:58;8.80;99.90
12815;DHT22;6472;52.328;13.070;2022-09-28T07:34:25;8.80;99.90
12815;DHT22;6472;52.328;13.070;2022-09-28T07:36:54;8.90;99.90
12815;DHT22;6472;52.328;13.070;2022-09-28T07:39:25;8.90;99.90
12815;DHT22;6472;52.328;13.070;2022-09-28T07:41:53;9.00;99.90
12815;DHT22;6472;52.328;13.070;2022-09-28T07:44:29;9.00;99.90
12815;DHT22;6472;52.328;13.070;2022-09-28T07:46:57;9.10;99.90
12815;DHT22;6472;52.328;13.070;2022-09-28T07:49:28;9.20;99.90
12815;DHT22;6472;52.328;13.070;2022-09-28T07:51:58;9.30;99.90
12815;DHT22;6472;52.328;13.070;2022-09-28T07:54:25;9.50;99.90
12815;DHT22;6472;52.328;13.070;2022-09-28T07:56:53;9.70;99.90
12815;DHT22;6472;52.328;13.070;2022-09-28T07:59:22;9.80;99.90
12815;DHT22;6472;52.328;13.070;2022-09-28T08:01:52;9.90;99.90
12815;DHT22;6472;52.328;13.070;2022-09-28T08:04:20;9.90;99.90
12815;DHT22;6472;52.328;13.070;2022-09-28T08:06:49;9.90;99.90
12815;DHT22;6472;52.328;13.070;2022-09-28T08:09:17;10.00;99.90
12815;DHT22;6472;52.328;13.070;2022-09-28T08:11:45;10.10;99.90
12815;DHT22;6472;52.328;13.070;2022-09-28T08:14:13;10.10;99.90
12815;DHT22;6472;52.328;13.070;2022-09-28T08:16:42;10.20;99.90
12815;DHT22;6472;52.328;13.070;2022-09-28T08:19:16;10.30;99.90
12815;DHT22;6472;52.328;13.070;2022-09-28T08:21:44;10.40;99.90
12815;DHT22;6472;52.328;13.070;2022-09-28T08:24:12;10.30;99.90
12815;DHT22;6472;52.328;13.070;2022-09-28T08:26:41;10.40;99.90
12815;DHT22;6472;52.328;13.070;2022-09-28T08:29:09;10.40;99.90
12815;DHT22;6472;52.328;13.070;2022-09-28T08:31:38;10.50;99.90
12815;DHT22;6472;52.328;13.070;2022-09-28T08:34:06;10.60;99.90
12815;DHT22;6472;52.328;13.070;2022-09-28T08:36:35;10.60;99.90
12815;DHT22;6472;52.328;13.070;2022-09-28T08:39:04;10.90;99.90
12815;DHT22;6472;52.328;13.070;2022-09-28T08:41:39;11.00;99.90
12815;DHT22;6472;52.328;13.070;2022-09-28T08:44:15;11.00;99.90
12815;DHT22;6472;52.328;13.070;2022-09-28T08:46:52;11.20;99.90
12815;DHT22;6472;52.328;13.070;2022-09-28T08:49:25;11.40;99.90
12815;DHT22;6472;52.328;13.070;2022-09-28T08:52:01;11.40;99.90
12815;DHT22;6472;52.328;13.070;2022-09-28T08:54:35;11.50;99.90
12815;DHT22;6472;52.328;13.070;2022-09-28T08:57:10;11.60;99.90
12815;DHT22;6472;52.328;13.070;2022-09-28T08:59:48;11.70;99.90
12815;DHT22;6472;52.328;13.070;2022-09-28T09:02:20;11.70;99.90
12815;DHT22;6472;52.328;13.070;2022-09-28T09:04:50;11.70;99.90
12815;DHT22;6472;52.328;13.070;2022-09-28T09:07:45;11.70;99.90
12815;DHT22;6472;52.328;13.070;2022-09-28T09:10:33;11.70;99.90
12815;DHT22;6472;52.328;13.070;2022-09-28T09:13:12;11.70;99.90
12815;DHT22;6472;52.328;13.070;2022-09-28T09:15:49;11.60;99.90
12815;DHT22;6472;52.328;13.070;2022-09-28T09:18:28;11.60;99.90
12815;DHT22;6472;52.328;13.070;2022-09-28T09:21:06;11.50;99.90
12815;DHT22;6472;52.328;13.070;2022-09-28T09:23:45;11.40;99.90
12815;DHT22;6472;52.328;13.070;2022-09-28T09:26:17;11.40;99.90
12815;DHT22;6472;52.328;13.070;2022-09-28T09:29:18;11.20;99.90
12815;DHT22;6472;52.328;13.070;2022-09-28T09:31:59;11.20;99.90
12815;DHT22;6472;52.328;13.070;2022-09-28T09:34:40;11.30;99.90
12815;DHT22;6472;52.328;13.070;2022-09-28T09:37:21;11.30;99.90
12815;DHT22;6472;52.328;13.070;2022-09-28T09:40:06;11.40;99.90
12815;DHT22;6472;52.328;13.070;2022-09-28T09:42:48;11.40;99.90
12815;DHT22;6472;52.328;13.070;2022-09-28T09:45:34;11.50;99.90
12815;DHT22;6472;52.328;13.070;2022-09-28T09:48:08;11.50;99.90
12815;DHT22;6472;52.328;13.070;2022-09-28T09:50:44;11.60;99.90
12815;DHT22;6472;52.328;13.070;2022-09-28T09:53:16;11.60;99.90
12815;DHT22;6472;52.328;13.070;2022-09-28T09:55:49;11.60;99.90
12815;DHT22;6472;52.328;13.070;2022-09-28T09:58:27;11.60;99.90
12815;DHT22;6472;52.328;13.070;2022-09-28T10:01:01;11.60;99.90
12815;DHT22;6472;52.328;13.070;2022-09-28T10:03:35;11.40;99.90
12815;DHT22;6472;52.328;13.070;2022-09-28T10:06:06;11.20;99.90
12815;DHT22;6472;52.328;13.070;2022-09-28T10:08:39;11.10;99.90
12815;DHT22;6472;52.328;13.070;2022-09-28T10:11:11;10.90;99.90
12815;DHT22;6472;52.328;13.070;2022-09-28T10:13:41;10.90;99.90
12815;DHT22;6472;52.328;13.070;2022-09-28T10:16:10;10.80;99.90
12815;DHT22;6472;52.328;13.070;2022-09-28T10:18:38;10.80;99.90
12815;DHT22;6472;52.328;13.070;2022-09-28T10:21:11;10.70;99.90
12815;DHT22;6472;52.328;13.070;2022-09-28T10:23:40;10.80;99.90
12815;DHT22;6472;52.328;13.070;2022-09-28T10:26:14;10.70;99.90
12815;DHT22;6472;52.328;13.070;2022-09-28T10:28:48;10.70;99.90
12815;DHT22;6472;52.328;13.070;2022-09-28T10:31:39;10.60;99.90
12815;DHT22;6472;52.328;13.070;2022-09-28T10:34:10;10.50;99.90
12815;DHT22;6472;52.328;13.070;2022-09-28T10:36:50;10.40;99.90
12815;DHT22;6472;52.328;13.070;2022-09-28T10:39:28;10.50;99.90
12815;DHT22;6472;52.328;13.070;2022-09-28T10:42:00;10.50;99.90
12815;DHT22;6472;52.328;13.070;2022-09-28T10:44:32;10.40;99.90
12815;DHT22;6472;52.328;13.070;2022-09-28T10:47:02;10.40;99.90
12815;DHT22;6472;52.328;13.070;2022-09-28T10:49:38;10.40;99.90
12815;DHT22;6472;52.328;13.070;2022-09-28T10:52:36;10.40;99.90
12815;DHT22;6472;52.328;13.070;2022-09-28T10:55:26;10.40;99.90
12815;DHT22;6472;52.328;13.070;2022-09-28T10:57:55;10.40;99.90
12815;DHT22;6472;52.328;13.070;2022-09-28T11:00:32;10.40;99.90
12815;DHT22;6472;52.328;13.070;2022-09-28T11:03:01;10.40;99.90
12815;DHT22;6472;52.328;13.070;2022-09-28T11:05:30;10.40;99.90
12815;DHT22;6472;52.328;13.070;2022-09-28T11:08:03;10.30;99.90
12815;DHT22;6472;52.328;13.070;2022-09-28T11:10:33;10.30;99.90
12815;DHT22;6472;52.328;13.070;2022-09-28T11:13:07;10.30;99.90
12815;DHT22;6472;52.328;13.070;2022-09-28T11:15:40;10.40;99.90
12815;DHT22;6472;52.328;13.070;2022-09-28T11:18:22;10.40;99.90
12815;DHT22;6472;52.328;13.070;2022-09-28T11:20:51;10.40;99.90
12815;DHT22;6472;52.328;13.070;2022-09-28T11:23:38;10.40;99.90
12815;DHT22;6472;52.328;13.070;2022-09-28T11:26:07;10.40;99.90
12815;DHT22;6472;52.328;13.070;2022-09-28T11:28:49;10.50;99.90
12815;DHT22;6472;52.328;13.070;2022-09-28T11:31:24;10.40;99.90
12815;DHT22;6472;52.328;13.070;2022-09-28T11:34:02;10.40;99.90
12815;DHT22;6472;52.328;13.070;2022-09-28T11:36:52;10.40;99.90
12815;DHT22;6472;52.328;13.070;2022-09-28T11:39:31;10.50;99.90
12815;DHT22;6472;52.328;13.070;2022-09-28T11:42:16;10.60;99.90
12815;DHT22;6472;52.328;13.070;2022-09-28T11:44:56;10.60;99.90
12815;DHT22;6472;52.328;13.070;2022-09-28T11:50:29;10.70;99.90
12815;DHT22;6472;52.328;13.070;2022-09-28T11:53:04;10.70;99.90
12815;DHT22;6472;52.328;13.070;2022-09-28T11:55:40;10.90;99.90
12815;DHT22;6472;52.328;13.070;2022-09-28T11:58:11;11.00;99.90
12815;DHT22;6472;52.328;13.070;2022-09-28T12:00:46;11.10;99.90
12815;DHT22;6472;52.328;13.070;2022-09-28T12:03:19;11.20;99.90
12815;DHT22;6472;52.328;13.070;2022-09-28T12:05:50;11.20;99.90
12815;DHT22;6472;52.328;13.070;2022-09-28T12:08:22;11.20;99.90
12815;DHT22;6472;52.328;13.070;2022-09-28T12:10:56;11.20;99.90
12815;DHT22;6472;52.328;13.070;2022-09-28T12:13:27;11.30;99.90
12815;DHT22;6472;52.328;13.070;2022-09-28T12:16:00;11.40;99.90
12815;DHT22;6472;52.328;13.070;2022-09-28T12:18:52;11.40;99.90
12815;DHT22;6472;52.328;13.070;2022-09-28T12:21:37;11.40;99.90
12815;DHT22;6472;52.328;13.070;2022-09-28T12:24:13;11.40;99.90
12815;DHT22;6472;52.328;13.070;2022-09-28T12:26:46;11.40;99.90
12815;DHT22;6472;52.328;13.070;2022-09-28T12:29:18;11.50;99.90
12815;DHT22;6472;52.328;13.070;2022-09-28T12:32:02;11.40;99.90
12815;DHT22;6472;52.328;13.070;2022-09-28T12:34:31;11.40;99.90
12815;DHT22;6472;52.328;13.070;2022-09-28T12:37:17;11.40;99.90
12815;DHT22;6472;52.328;13.070;2022-09-28T12:40:04;11.40;99.90
12815;DHT22;6472;52.328;13.070;2022-09-28T12:42:55;11.50;99.90
12815;DHT22;6472;52.328;13.070;2022-09-28T12:45:38;11.50;99.90
12815;DHT22;6472;52.328;13.070;2022-09-28T12:48:53;11.40;99.90
12815;DHT22;6472;52.328;13.070;2022-09-28T12:51:47;11.50;99.90
12815;DHT22;6472;52.328;13.070;2022-09-28T12:54:36;11.60;99.90
12815;DHT22;6472;52.328;13.070;2022-09-28T12:57:23;11.60;99.90
12815;DHT22;6472;52.328;13.070;2022-09-28T13:00:02;11.70;99.90
12815;DHT22;6472;52.328;13.070;2022-09-28T13:02:44;11.70;99.90
12815;DHT22;6472;52.328;13.070;2022-09-28T13:05:40;11.80;99.90
12815;DHT22;6472;52.328;13.070;2022-09-28T13:08:18;11.90;99.90
12815;DHT22;6472;52.328;13.070;2022-09-28T13:10:54;11.90;99.90
12815;DHT22;6472;52.328;13.070;2022-09-28T13:13:38;11.80;99.90
12815;DHT22;6472;52.328;13.070;2022-09-28T13:16:15;11.60;99.90
12815;DHT22;6472;52.328;13.070;2022-09-28T13:18:52;11.60;99.90
12815;DHT22;6472;52.328;13.070;2022-09-28T13:21:29;11.50;99.90
12815;DHT22;6472;52.328;13.070;2022-09-28T13:24:02;11.50;99.90
12815;DHT22;6472;52.328;13.070;2022-09-28T13:26:52;11.50;99.90
12815;DHT22;6472;52.328;13.070;2022-09-28T13:29:23;11.50;99.90
12815;DHT22;6472;52.328;13.070;2022-09-28T13:31:55;11.70;99.90
12815;DHT22;6472;52.328;13.070;2022-09-28T13:34:26;11.70;99.90
12815;DHT22;6472;52.328;13.070;2022-09-28T13:37:18;11.80;99.90
12815;DHT22;6472;52.328;13.070;2022-09-28T13:39:48;11.60;99.90
12815;DHT22;6472;52.328;13.070;2022-09-28T13:42:31;11.50;99.90
12815;DHT22;6472;52.328;13.070;2022-09-28T13:45:24;11.60;99.90
12815;DHT22;6472;52.328;13.070;2022-09-28T13:48:00;11.70;99.90
12815;DHT22;6472;52.328;13.070;2022-09-28T13:50:41;11.60;99.90
12815;DHT22;6472;52.328;13.070;2022-09-28T13:53:23;11.60;99.90
12815;DHT22;6472;52.328;13.070;2022-09-28T13:55:59;11.60;99.90
12815;DHT22;6472;52.328;13.070;2022-09-28T13:58:33;11.60;99.90
12815;DHT22;6472;52.328;13.070;2022-09-28T14:01:07;11.50;99.90
12815;DHT22;6472;52.328;13.070;2022-09-28T14:03:54;11.40;99.90
12815;DHT22;6472;52.328;13.070;2022-09-28T14:06:25;11.30;99.90
12815;DHT22;6472;52.328;13.070;2022-09-28T14:09:25;11.20;99.90
12815;DHT22;6472;52.328;13.070;2022-09-28T14:11:58;11.20;99.90
12815;DHT22;6472;52.328;13.070;2022-09-28T14:14:44;11.20;99.90
12815;DHT22;6472;52.328;13.070;2022-09-28T14:17:52;11.10;99.90
12815;DHT22;6472;52.328;13.070;2022-09-28T14:20:24;11.10;99.90
12815;DHT22;6472;52.328;13.070;2022-09-28T14:26:04;11.10;99.90
12815;DHT22;6472;52.328;13.070;2022-09-28T14:28:50;10.90;99.90
12815;DHT22;6472;52.328;13.070;2022-09-28T14:31:25;10.70;99.90
12815;DHT22;6472;52.328;13.070;2022-09-28T14:33:56;10.80;99.90
12815;DHT22;6472;52.328;13.070;2022-09-28T14:36:27;10.90;99.90
12815;DHT22;6472;52.328;13.070;2022-09-28T14:39:20;10.90;99.90
12815;DHT22;6472;52.328;13.070;2022-09-28T14:42:15;10.80;99.90
12815;DHT22;6472;52.328;13.070;2022-09-28T14:45:18;10.90;99.90
12815;DHT22;6472;52.328;13.070;2022-09-28T14:48:10;10.90;99.90
12815;DHT22;6472;52.328;13.070;2022-09-28T14:50:39;11.00;99.90
12815;DHT22;6472;52.328;13.070;2022-09-28T14:53:09;10.90;99.90
12815;DHT22;6472;52.328;13.070;2022-09-28T14:55:45;11.00;99.90
12815;DHT22;6472;52.328;13.070;2022-09-28T14:58:22;11.00;99.90
12815;DHT22;6472;52.328;13.070;2022-09-28T15:01:02;10.90;99.90
12815;DHT22;6472;52.328;13.070;2022-09-28T15:03:33;10.90;99.90
12815;DHT22;6472;52.328;13.070;2022-09-28T15:06:02;10.90;99.90
12815;DHT22;6472;52.328;13.070;2022-09-28T15:08:37;10.90;99.90
12815;DHT22;6472;52.328;13.070;2022-09-28T15:11:09;10.90;99.90
12815;DHT22;6472;52.328;13.070;2022-09-28T15:13:41;10.90;99.90
12815;DHT22;6472;52.328;13.070;2022-09-28T15:16:10;10.90;99.90
12815;DHT22;6472;52.328;13.070;2022-09-28T15:19:12;10.90;99.90
12815;DHT22;6472;52.328;13.070;2022-09-28T15:21:44;10.70;99.90
12815;DHT22;6472;52.328;13.070;2022-09-28T15:24:29;10.60;99.90
12815;DHT22;6472;52.328;13.070;2022-09-28T15:27:02;10.60;99.90
12815;DHT22;6472;52.328;13.070;2022-09-28T15:29:31;10.40;99.90
12815;DHT22;6472;52.328;13.070;2022-09-28T15:31:59;10.40;99.90
12815;DHT22;6472;52.328;13.070;2022-09-28T15:34:29;10.30;99.90
12815;DHT22;6472;52.328;13.070;2022-09-28T15:37:16;10.20;99.90
12815;DHT22;6472;52.328;13.070;2022-09-28T15:39:45;10.20;99.90
12815;DHT22;6472;52.328;13.070;2022-09-28T15:42:14;10.10;99.90
12815;DHT22;6472;52.328;13.070;2022-09-28T15:45:10;10.00;99.90
12815;DHT22;6472;52.328;13.070;2022-09-28T15:47:55;9.90;99.90
12815;DHT22;6472;52.328;13.070;2022-09-28T15:50:25;9.80;99.90
12815;DHT22;6472;52.328;13.070;2022-09-28T15:52:57;9.80;99.90
12815;DHT22;6472;52.328;13.070;2022-09-28T15:55:28;9.70;99.90
12815;DHT22;6472;52.328;13.070;2022-09-28T15:58:05;9.50;99.90
12815;DHT22;6472;52.328;13.070;2022-09-28T16:00:36;9.50;99.90
12815;DHT22;6472;52.328;13.070;2022-09-28T16:03:20;9.40;99.90
12815;DHT22;6472;52.328;13.070;2022-09-28T16:05:50;9.40;99.90
12815;DHT22;6472;52.328;13.070;2022-09-28T16:08:20;9.30;99.90
12815;DHT22;6472;52.328;13.070;2022-09-28T16:10:59;9.20;99.90
12815;DHT22;6472;52.328;13.070;2022-09-28T16:13:30;9.20;99.90
12815;DHT22;6472;52.328;13.070;2022-09-28T16:16:01;9.10;99.90
12815;DHT22;6472;52.328;13.070;2022-09-28T16:18:29;9.10;99.90
12815;DHT22;6472;52.328;13.070;2022-09-28T16:21:24;9.20;99.90
12815;DHT22;6472;52.328;13.070;2022-09-28T16:23:54;9.10;99.90
12815;DHT22;6472;52.328;13.070;2022-09-28T16:26:29;9.00;99.90
12815;DHT22;6472;52.328;13.070;2022-09-28T16:28:59;9.00;99.90
12815;DHT22;6472;52.328;13.070;2022-09-28T16:31:34;9.00;99.90